Weather observations for the past three days for
Mount Pleasant, Mount Pleasant Municipal Airport
Imperial (Metric)
Date Time (cdt) Wind (mph) Vis. (mi.) Weather Sky Cond. Temperature (ºF) Relative Humidity Wind Chill (°F) Heat Index (°F) Pressure Precipitation (in)
Air Dwpt 6 hour altimeter (in) sea level (mb) 1 hr 3 hr 6 hr
Max. Min.
06 15:30 E 8 10.00 Fair CLR 82.4 66.2 58% 85 30.04 0.0
06 15:10 E 7 10.00 Partly Cloudy SCT031 82.4 68 62% 85 30.04 0.0
06 14:50 E 10 10.00 Partly Cloudy SCT031 82.4 68 62% 85 30.05 0.0
06 14:30 SE 6 10.00 Fair CLR 82.4 68 62% 85 30.06 0.0
06 14:10 E 9 10.00 Partly Cloudy SCT030 82.4 68 62% 85 30.06 0.0
06 13:50 E 7 10.00 Partly Cloudy SCT028 82.4 68 62% 85 30.06 0.0
06 13:30 E 7 10.00 Partly Cloudy SCT028 80.6 68 66% 83 30.06 0.0
06 13:10 E 7 10.00 Partly Cloudy SCT027 80.6 68 66% 83 30.07 0.0
06 12:50 E 7 10.00 Partly Cloudy SCT025 80.6 68 66% 83 30.07 0.0
06 12:30 E 7 10.00 Partly Cloudy SCT025 80.6 68 66% 83 30.07 0.0
06 12:10 SE 8 10.00 Partly Cloudy SCT023 80.6 68 66% 83 30.08 0.0
06 11:50 SE 7 10.00 Partly Cloudy SCT021 78.8 68 70% 81 30.09 0.0
06 11:30 E 6 10.00 Mostly Cloudy BKN019 77 68 74% 79 30.1 0.0
06 11:10 E 3 10.00 Overcast OVC019 77 68 74% 79 30.1 0.0
06 10:50 E 6 10.00 Overcast OVC017 75.2 68 78% 76 30.1 0.0
06 10:30 E 6 10.00 Overcast OVC015 73.4 68 83% 30.1 0.0
06 10:10 E 6 10.00 Overcast OVC013 73.4 68 83% 30.1 0.0
06 09:50 E 6 10.00 Overcast BKN010 OVC017 73.4 68 83% 30.1 0.0
06 09:30 E 5 7.00 Overcast BKN008 OVC015 71.6 68 88% 30.1 0.0
06 09:10 E 8 7.00 Overcast OVC008 69.8 68 94% 30.09 0.0
06 08:50 E 6 7.00 Overcast OVC008 69.8 68 94% 30.08 0.0
06 08:30 E 9 7.00 Overcast OVC010 69.8 68 94% 30.08 0.0
06 08:10 E 6 5.00 Fog/Mist OVC012 69.8 68 94% 30.07 0.0
06 07:50 E 7 4.00 Fog/Mist OVC012 69.8 68 94% 30.07 0.0
06 07:30 NE 3 3.00 Fog/Mist BKN012 69.8 68 94% 30.07 0.0
06 07:10 E 5 4.00 Fog/Mist CLR 68 68 100% 30.06 0.0
06 06:50 NE 5 4.00 Fog/Mist CLR 68 66.2 94% 30.06 0.0
06 06:30 E 3 5.00 Fog/Mist CLR 68 66.2 94% 30.05 0.0
06 06:10 Calm 7.00 Fair CLR 68 68 100% 30.05 0.0
06 05:50 Calm 7.00 Fair CLR 68 68 100% 30.05 0.0
06 05:30 Calm 7.00 Fair CLR 69.8 68 94% 30.04 0.0
06 05:10 Calm 7.00 Fair CLR 69.8 68 94% 30.04 0.0
06 04:50 Calm 7.00 Partly Cloudy SCT008 69.8 68 94% 30.03 0.0
06 04:30 E 5 7.00 Partly Cloudy SCT008 69.8 69.8 100% 30.01 0.0
06 04:10 E 3 7.00 Partly Cloudy SCT008 69.8 69.8 100% 30.01 0.0
06 03:50 E 5 7.00 Fair CLR 71.6 69.8 94% 30.01 0.0
06 03:30 E 6 10.00 Fair CLR 71.6 69.8 94% 30.01 0.0
06 03:10 E 6 10.00 Partly Cloudy SCT025 71.6 69.8 94% 30.01 0.0
06 02:50 NE 6 10.00 Fair CLR 71.6 69.8 94% 30.02 0.0
06 02:30 NE 3 7.00 Fair CLR 71.6 69.8 94% 30.01 0.0
06 02:10 E 3 10.00 Fair CLR 71.6 69.8 94% 30.01 0.0
06 01:50 NE 3 10.00 Fair CLR 71.6 69.8 94% 30.02 0.0
06 01:30 E 3 10.00 Fair CLR 71.6 69.8 94% 30.02 0.0
06 01:10 E 3 10.00 Fair CLR 71.6 69.8 94% 30.02 0.0
06 00:50 NE 3 10.00 Fair CLR 73.4 69.8 89% 30.03 0.0
06 00:30 NE 6 10.00 Fair CLR 73.4 69.8 89% 30.03 0.0
06 00:10 E 3 10.00 Fair CLR 73.4 69.8 89% 30.02 0.0
05 23:50 E 3 10.00 Fair CLR 73.4 71.6 94% 30.01 0.0
05 23:35 NE 5 10.00 Fair CLR 73.4 71.6 94% 30.01 0.0
05 23:15 E 5 10.00 Fair CLR 73.4 71.6 94% 30 0.0
05 22:55 NE 6 10.00 Fair CLR 73.4 71.6 94% 30 0.0
05 22:35 NE 6 10.00 Fair CLR 75.2 71.6 89% 75 29.98 0.0
05 22:15 E 6 10.00 Fair CLR 75.2 73.4 94% 74 29.98 0.0
05 21:55 E 6 10.00 Fair CLR 77 73.4 89% 78 29.98 0.0
05 21:35 NE 7 10.00 Fair CLR 77 73.4 89% 78 29.98 0.0
05 21:15 NE 6 10.00 Fair CLR 77 73.4 89% 78 29.97 0.0
05 20:55 NE 6 10.00 Fair CLR 78.8 75.2 89% 82 29.97 0.0
05 20:35 NE 6 10.00 Fair CLR 78.8 75.2 89% 82 29.95 0.0
05 20:15 NE 6 10.00 Fair CLR 80.6 75.2 84% 86 29.95 0.0
05 19:55 NE 6 10.00 Fair CLR 80.6 75.2 84% 86 29.94 0.0
05 19:35 NE 3 10.00 Fair CLR 82.4 77 84% 91 29.94 0.0
05 19:15 Calm 10.00 Fair CLR 84.2 77 79% 94 29.94 0.0
05 18:55 NE 3 10.00 Fair CLR 86 77 75% 97 29.94 0.0
05 18:35 NE 5 10.00 Fair CLR 87.8 77 70% 100 29.94 0.0
05 18:15 NE 5 10.00 Fair CLR 89.6 75.2 63% 100 29.93 0.0
05 17:55 NE 7 10.00 Fair CLR 89.6 75.2 63% 100 29.93 0.0
05 17:35 NE 7 10.00 Fair CLR 89.6 77 67% 103 29.93 0.0
05 17:15 NE 6 10.00 Fair CLR 91.4 77 63% 105 29.93 0.0
05 16:55 NE 6 10.00 Partly Cloudy SCT036 91.4 75.2 59% 103 29.92 0.0
05 16:35 NE 6 10.00 Partly Cloudy SCT037 91.4 75.2 59% 103 29.93 0.0
05 16:15 NE 6 10.00 Fair CLR 91.4 77 63% 105 29.93 0.0
05 15:55 NE 7 10.00 Fair CLR 91.4 77 63% 105 29.94 0.0
05 15:35 N 3 10.00 Fair CLR 89.6 75.2 63% 100 29.94 0.0
05 15:15 N 5 10.00 Fair CLR 89.6 73.4 59% 98 29.95 0.0
05 14:55 N 3 10.00 Fair CLR 89.6 75.2 63% 100 29.95 0.0
05 12:55 N 6 10.00 Fair CLR 89.6 73.4 59% 98 29.97 0.0
05 12:35 N 5 10.00 Fair CLR 89.6 71.6 55% 96 29.97 0.0
05 12:15 N 7 10.00 Fair CLR 89.6 71.6 55% 96 29.97 0.0
05 11:55 N 6 10.00 Fair CLR 91.4 71.6 52% 99 29.98 0.0
05 11:35 NW 6 10.00 Fair CLR 89.6 71.6 55% 96 29.98 0.0
05 11:15 NW 6 10.00 Fair CLR 89.6 71.6 55% 96 29.98 0.0
05 10:55 N 3 10.00 Fair CLR 89.6 73.4 59% 98 29.98 0.0
05 10:35 Calm 10.00 Fair CLR 87.8 73.4 62% 96 29.97 0.0
05 10:15 Calm 10.00 Fair CLR 86 71.6 62% 92 29.97 0.0
05 09:55 Calm 10.00 Fair CLR 86 73.4 66% 93 29.96 0.0
05 09:35 Calm 10.00 Fair CLR 84.2 71.6 66% 90 29.96 0.0
05 09:15 Calm 10.00 Fair CLR 82.4 73.4 74% 88 29.96 0.0
05 08:55 NW 3 10.00 Fair CLR 82.4 73.4 74% 88 29.96 0.0
05 08:35 Calm 10.00 Fair CLR 80.6 73.4 79% 85 29.95 0.0
05 08:15 Calm 10.00 Fair CLR 78.8 71.6 79% 82 29.95 0.0
05 07:55 Calm 10.00 Fair CLR 77 71.6 83% 78 29.95 0.0
05 07:35 Calm 10.00 Fair CLR 73.4 71.6 94% 29.95 0.0
05 07:15 Calm 10.00 Fair CLR 71.6 71.6 100% 29.95 0.0
05 06:55 Calm 7.00 Fair CLR 71.6 69.8 94% 29.94 0.0
05 06:35 Calm 10.00 Fair CLR 71.6 69.8 94% 29.93 0.0
05 06:15 Calm 10.00 Fair CLR 71.6 69.8 94% 29.93 0.0
05 05:55 Calm 10.00 Fair CLR 71.6 69.8 94% 29.92 0.0
05 05:35 Calm 10.00 Fair CLR 71.6 69.8 94% 29.92 0.0
05 05:15 Calm 10.00 Fair CLR 71.6 69.8 94% 29.92 0.0
05 04:55 Calm 10.00 Fair CLR 71.6 69.8 94% 29.93 0.0
05 04:35 Calm 10.00 Fair CLR 71.6 69.8 94% 29.93 0.0
05 04:15 Calm 10.00 Fair CLR 71.6 69.8 94% 29.93 0.0
05 03:55 Calm 10.00 Fair CLR 71.6 69.8 94% 29.93 0.0
05 03:35 Calm 10.00 Fair CLR 71.6 69.8 94% 29.93 0.0
05 03:15 Calm 10.00 Fair CLR 71.6 69.8 94% 29.93 0.0
05 02:55 Calm 10.00 Fair CLR 73.4 71.6 94% 29.93 0.0
05 02:35 SW 3 10.00 Fair CLR 73.4 71.6 94% 29.93 0.0
05 02:15 SW 3 10.00 Fair CLR 73.4 71.6 94% 29.93 0.0
05 01:55 S 3 10.00 Fair CLR 73.4 71.6 94% 29.94 0.0
05 01:35 E 3 10.00 Fair CLR 73.4 71.6 94% 29.94 0.0
05 01:15 E 3 10.00 Fair CLR 73.4 71.6 94% 29.94 0.0
05 00:55 E 5 10.00 Fair CLR 73.4 71.6 94% 29.94 0.0
05 00:35 Calm 10.00 Fair CLR 73.4 71.6 94% 29.93 0.0
05 00:15 Calm 10.00 Fair CLR 73.4 71.6 94% 29.93 0.0
04 23:55 S 3 10.00 Fair CLR 73.4 71.6 94% 29.93 0.0
04 23:35 S 3 10.00 Fair CLR 73.4 71.6 94% 29.93 0.0
04 23:15 S 3 10.00 Fair CLR 75.2 73.4 94% 74 29.93 0.0
04 22:55 SE 3 10.00 Fair CLR 75.2 73.4 94% 74 29.93 0.0
04 22:35 SE 3 10.00 Fair CLR 77 73.4 89% 78 29.93 0.0
04 22:15 Calm 10.00 Fair CLR 77 73.4 89% 78 29.92 0.0
04 21:55 Calm 10.00 Fair CLR 77 73.4 89% 78 29.92 0.0
04 21:35 Calm 10.00 Fair CLR 77 73.4 89% 78 29.92 0.0
04 21:15 Calm 10.00 Fair CLR 77 73.4 89% 78 29.92 0.0
04 20:55 Calm 10.00 Fair CLR 77 73.4 89% 78 29.92 0.0
04 20:35 Calm 10.00 Fair CLR 78.8 75.2 89% 82 29.91 0.0
04 20:15 Calm 10.00 Fair CLR 78.8 75.2 89% 82 29.91 0.0
04 19:55 Calm 10.00 Fair CLR 80.6 75.2 84% 86 29.91 0.0
04 19:35 Calm 10.00 Fair CLR 80.6 77 89% 87 29.9 0.0
04 19:15 Calm 10.00 Fair CLR 84.2 77 79% 94 29.9 0.0
04 18:55 S 3 10.00 Fair CLR 87.8 75.2 66% 98 29.9 0.0
04 18:35 S 3 10.00 Fair CLR 89.6 73.4 59% 98 29.9 0.0
04 18:15 S 5 10.00 Fair CLR 91.4 73.4 56% 100 29.9 0.0
04 17:55 SW 5 10.00 Fair CLR 91.4 73.4 56% 100 29.9 0.0
04 17:35 S 7 10.00 Fair CLR 91.4 71.6 52% 99 29.89 0.0
04 17:15 S 6 G 9 10.00 Fair CLR 89.6 71.6 55% 96 29.89 0.0
04 16:55 S 12 10.00 Fair CLR 93.2 71.6 50% 101 29.89 0.0
04 16:35 S 9 10.00 Fair CLR 95 71.6 47% 103 29.9 0.0
04 16:15 S 8 10.00 Fair CLR 95 71.6 47% 103 29.91 0.0
04 15:55 S 10 10.00 Fair CLR 95 71.6 47% 103 29.91 0.0
04 15:35 S 10 G 16 10.00 Fair CLR 93.2 71.6 50% 101 29.92 0.0
04 15:15 S 10 10.00 Fair CLR 93.2 71.6 50% 101 29.92 0.0
04 14:55 S 9 10.00 Fair CLR 95 71.6 47% 103 29.92 0.0
04 14:35 SW 13 G 16 10.00 Fair CLR 95 71.6 47% 103 29.93 0.0
04 14:15 SW 10 10.00 Fair CLR 93.2 71.6 50% 101 29.94 0.0
04 13:55 SW 7 G 16 10.00 Fair CLR 93.2 71.6 50% 101 29.94 0.0
04 13:35 SW 9 G 16 10.00 Fair CLR 91.4 71.6 52% 99 29.95 0.0
04 13:15 SW 9 10.00 Fair CLR 91.4 71.6 52% 99 29.95 0.0
04 12:55 SW 8 10.00 Fair CLR 91.4 71.6 52% 99 29.96 0.0
04 12:35 SW 10 G 16 10.00 Fair CLR 91.4 71.6 52% 99 29.97 0.0
04 12:15 SW 9 G 16 10.00 Fair CLR 89.6 71.6 55% 96 29.97 0.0
04 11:55 W 6 10.00 Fair CLR 89.6 71.6 55% 96 29.97 0.0
04 11:35 SW 8 10.00 Fair CLR 89.6 71.6 55% 96 29.97 0.0
04 11:15 W 7 10.00 Fair CLR 89.6 71.6 55% 96 29.97 0.0
04 10:55 W 6 10.00 Fair CLR 87.8 71.6 59% 94 29.97 0.0
04 10:35 SW 6 10.00 Fair CLR 87.8 71.6 59% 94 29.97 0.0
04 10:15 W 5 10.00 Fair CLR 87.8 71.6 59% 94 29.97 0.0
04 09:55 W 5 10.00 Fair CLR 86 71.6 62% 92 29.96 0.0
04 09:35 W 5 10.00 Fair CLR 84.2 71.6 66% 90 29.96 0.0
04 09:15 W 3 10.00 Fair CLR 82.4 71.6 70% 87 29.95 0.0
04 08:55 Calm 10.00 Fair CLR 80.6 69.8 70% 84 29.95 0.0
04 08:35 SW 7 10.00 Fair CLR 78.8 69.8 74% 81 29.95 0.0
04 08:15 SW 5 10.00 Fair CLR 77 69.8 79% 79 29.95 0.0
04 07:55 SW 5 10.00 Fair CLR 77 69.8 79% 79 29.95 0.0
04 07:35 SW 3 10.00 Fair CLR 75.2 69.8 83% 75 29.94 0.0
04 07:15 SW 5 10.00 Fair CLR 73.4 69.8 89% 29.94 0.0
04 06:55 SW 5 10.00 Fair CLR 73.4 69.8 89% 29.93 0.0
04 06:35 SW 6 10.00 Fair CLR 73.4 69.8 89% 29.92 0.0
04 06:15 S 5 10.00 Fair CLR 73.4 69.8 89% 29.92 0.0
04 05:55 S 6 10.00 Fair CLR 73.4 69.8 89% 29.92 0.0
04 05:35 S 6 10.00 Fair CLR 73.4 69.8 89% 29.92 0.0
04 05:15 S 5 10.00 Fair CLR 73.4 69.8 89% 29.92 0.0
04 04:55 S 5 10.00 Fair CLR 73.4 69.8 89% 29.91 0.0
04 04:35 S 6 10.00 Fair CLR 75.2 69.8 83% 75 29.9 0.0
04 04:10 S 6 10.00 Fair CLR 75.2 69.8 83% 75 29.9 0.0
04 03:55 S 6 10.00 Fair CLR 75.2 69.8 83% 75 29.89 0.0
04 03:35 S 5 10.00 Fair CLR 75.2 69.8 83% 75 29.89 0.0
04 03:15 S 5 10.00 Fair CLR 73.4 69.8 89% 29.89 0.0
04 02:55 S 3 10.00 Fair CLR 73.4 69.8 89% 29.89 0.0
04 02:35 SE 3 10.00 Fair CLR 73.4 69.8 89% 29.9 0.0
04 02:15 S 3 10.00 Fair CLR 73.4 69.8 89% 29.9 0.0
04 01:55 S 3 10.00 Fair CLR 73.4 69.8 89% 29.9 0.0
04 01:35 S 3 10.00 Fair CLR 73.4 69.8 89% 29.91 0.0
04 01:15 Calm 10.00 Fair CLR 73.4 69.8 89% 29.91 0.0
04 00:55 S 5 10.00 Fair CLR 75.2 69.8 83% 75 29.91 0.0
04 00:35 S 3 10.00 Fair CLR 73.4 69.8 89% 29.92 0.0
04 00:15 SE 3 10.00 Fair CLR 73.4 71.6 94% 29.91 0.0
03 23:55 Calm 10.00 Fair CLR 73.4 71.6 94% 29.91 0.0
03 23:35 Calm 10.00 Fair CLR 77 71.6 83% 78 29.91 0.0
03 23:15 S 3 10.00 Fair CLR 77 71.6 83% 78 29.9 0.0
03 22:55 S 5 10.00 Fair CLR 77 71.6 83% 78 29.9 0.0
03 22:35 S 3 10.00 Fair CLR 77 71.6 83% 78 29.9 0.0
03 22:15 S 3 10.00 Fair CLR 78.8 71.6 79% 82 29.9 0.0
03 21:55 S 3 10.00 Fair CLR 78.8 71.6 79% 82 29.9 0.0
03 21:35 S 3 10.00 Fair CLR 78.8 73.4 84% 82 29.89 0.0
03 21:15 S 5 10.00 Fair CLR 80.6 73.4 79% 85 29.89 0.0
03 20:55 S 5 10.00 Fair CLR 80.6 73.4 79% 85 29.88 0.0
03 20:35 S 5 10.00 Fair CLR 80.6 75.2 84% 86 29.88 0.0
03 20:15 S 5 10.00 Fair CLR 80.6 75.2 84% 86 29.88 0.0
03 19:55 S 3 10.00 Fair CLR 82.4 75.2 79% 89 29.87 0.0
03 19:35 S 5 10.00 Fair CLR 82.4 75.2 79% 89 29.87 0.0
03 19:15 S 5 10.00 Fair CLR 86 75.2 70% 95 29.87 0.0
03 18:55 S 5 10.00 Fair CLR 87.8 75.2 66% 98 29.87 0.0
03 18:35 S 6 10.00 Fair CLR 89.6 75.2 63% 100 29.87 0.0
03 18:15 S 6 10.00 Fair CLR 91.4 73.4 56% 100 29.88 0.0
03 17:55 Calm 10.00 Fair CLR 91.4 73.4 56% 100 29.88 0.0
03 17:35 S 5 10.00 Fair CLR 93.2 73.4 53% 103 29.88 0.0
03 17:15 S 6 10.00 Fair CLR 93.2 73.4 53% 103 29.89 0.0
03 16:55 S 7 10.00 Fair CLR 93.2 73.4 53% 103 29.89 0.0
03 16:35 SE 6 10.00 Fair CLR 95 73.4 50% 105 29.9 0.0
03 16:15 S 5 10.00 Fair CLR 95 73.4 50% 105 29.9 0.0
03 15:55 S 3 10.00 Partly Cloudy SCT048 95 73.4 50% 105 29.9 0.0
Date Time (cdt) Wind (mph) Vis. (mi.) Weather Sky Cond. Air Dwpt Max. Min. Relative Humidity Wind Chill (°F) Heat Index (°F) altimeter (in) sea level (mb) 1 hr 3 hr 6 hr
6 hour
Temperature (ºF) Pressure Precipitation (in)